createdAt,value
2023-03-26T00:00:12.126Z,7.6
2023-03-26T00:03:12.052Z,7.6
2023-03-26T00:06:12.266Z,7.6
2023-03-26T00:09:11.753Z,7.6
2023-03-26T00:12:11.760Z,7.6
2023-03-26T00:15:11.757Z,7.7
2023-03-26T00:18:12.003Z,7.7
2023-03-26T00:21:11.676Z,7.7
2023-03-26T00:24:11.697Z,7.7
2023-03-26T00:27:11.888Z,7.7
2023-03-26T00:30:11.963Z,7.7
2023-03-26T00:33:12.108Z,7.9
2023-03-26T00:36:15.783Z,7.9
2023-03-26T00:39:11.710Z,7.9
2023-03-26T00:42:11.700Z,7.9
2023-03-26T00:45:11.979Z,7.9
2023-03-26T00:48:13.960Z,7.9
2023-03-26T00:51:11.619Z,7.9
2023-03-26T00:54:11.717Z,7.7
2023-03-26T00:57:12.040Z,7.7
2023-03-26T01:00:11.695Z,7.6
2023-03-26T01:03:17.270Z,7.6
2023-03-26T01:06:12.022Z,7.6
2023-03-26T01:09:11.657Z,7.5
2023-03-26T01:12:12.056Z,7.5
2023-03-26T01:15:12.616Z,7.5
2023-03-26T01:18:11.852Z,7.5
2023-03-26T01:21:12.136Z,7.5
2023-03-26T01:24:13.780Z,7.5
2023-03-26T01:27:11.805Z,7.5
2023-03-26T01:30:12.583Z,7.5
2023-03-26T01:33:12.712Z,7.5
2023-03-26T01:36:12.096Z,7.5
2023-03-26T01:39:11.965Z,7.5
2023-03-26T01:42:11.715Z,7.6
2023-03-26T01:45:11.821Z,7.6
2023-03-26T01:48:11.946Z,7.6
2023-03-26T01:51:11.737Z,7.6
2023-03-26T01:54:11.794Z,7.6
2023-03-26T01:57:12.634Z,7.6
2023-03-26T02:00:11.821Z,7.6
2023-03-26T02:03:12.460Z,7.6
2023-03-26T02:06:11.720Z,7.6
2023-03-26T02:09:12.162Z,7.6
2023-03-26T02:12:12.455Z,7.6
2023-03-26T02:15:11.912Z,7.6
2023-03-26T02:18:12.033Z,7.6
2023-03-26T02:21:13.625Z,7.6
2023-03-26T02:24:12.613Z,7.6
2023-03-26T02:27:13.809Z,7.6
2023-03-26T02:30:11.880Z,7.6
2023-03-26T02:33:12.052Z,7.6
2023-03-26T02:36:13.579Z,7.5
2023-03-26T02:39:11.797Z,7.5
2023-03-26T02:42:11.713Z,7.4
2023-03-26T02:45:11.814Z,7.4
2023-03-26T02:48:12.164Z,7.4
2023-03-26T02:51:11.708Z,7.4
2023-03-26T02:54:12.076Z,7.2
2023-03-26T02:57:12.263Z,7.2
2023-03-26T03:00:11.893Z,7.2
2023-03-26T03:03:12.231Z,7.1
2023-03-26T03:06:11.696Z,7.1
2023-03-26T03:09:11.722Z,7
2023-03-26T03:12:11.631Z,7
2023-03-26T03:15:11.844Z,7
2023-03-26T03:18:11.917Z,7
2023-03-26T03:21:11.786Z,7.1
2023-03-26T03:24:11.822Z,7.2
2023-03-26T03:27:11.638Z,7.2
2023-03-26T03:30:11.751Z,7.2
2023-03-26T03:33:11.882Z,7.2
2023-03-26T03:36:21.909Z,7.2
2023-03-26T03:39:11.763Z,7.4
2023-03-26T03:42:11.702Z,7.4
2023-03-26T03:45:11.668Z,7.4
2023-03-26T03:48:12.080Z,7.4
2023-03-26T03:51:11.656Z,7.4
2023-03-26T03:54:11.665Z,7.5
2023-03-26T03:57:12.150Z,7.5
2023-03-26T04:00:14.022Z,7.5
2023-03-26T04:03:12.293Z,7.6
2023-03-26T04:06:11.638Z,7.6
2023-03-26T04:09:11.708Z,7.6
2023-03-26T04:12:11.716Z,7.6
2023-03-26T04:15:11.776Z,7.6
2023-03-26T04:18:12.068Z,7.6
2023-03-26T04:21:11.817Z,7.6
2023-03-26T04:24:11.685Z,7.6
2023-03-26T04:27:11.665Z,7.6
2023-03-26T04:30:11.749Z,7.6
2023-03-26T04:33:11.988Z,7.6
2023-03-26T04:36:12.461Z,7.7
2023-03-26T04:39:11.858Z,7.6
2023-03-26T04:42:11.672Z,7.6
2023-03-26T04:45:11.695Z,7.6
2023-03-26T04:48:12.011Z,7.6
2023-03-26T04:51:11.650Z,7.6
2023-03-26T04:54:11.736Z,7.6
2023-03-26T04:57:12.153Z,7.6
2023-03-26T05:00:11.767Z,7.6
2023-03-26T05:03:12.160Z,7.7
2023-03-26T05:06:11.664Z,7.7
2023-03-26T05:09:11.781Z,7.7
2023-03-26T05:12:11.759Z,7.9
2023-03-26T05:15:11.942Z,7.9
2023-03-26T05:18:11.960Z,8
2023-03-26T05:21:11.791Z,8
2023-03-26T05:24:11.763Z,8
2023-03-26T05:27:11.730Z,8
2023-03-26T05:30:11.936Z,8
2023-03-26T05:33:12.452Z,8
2023-03-26T05:36:11.863Z,7.9
2023-03-26T05:39:11.721Z,8
2023-03-26T05:42:11.789Z,8
2023-03-26T05:45:11.809Z,8.1
2023-03-26T05:48:12.327Z,8.3
2023-03-26T05:51:11.740Z,8.4
2023-03-26T05:54:11.787Z,8.6
2023-03-26T05:57:12.152Z,8.8
2023-03-26T06:00:11.975Z,8.9
2023-03-26T06:03:13.133Z,8.9
2023-03-26T06:06:11.758Z,9
2023-03-26T06:09:13.946Z,9.1
2023-03-26T06:12:11.725Z,9.3
2023-03-26T06:15:12.029Z,9.5
2023-03-26T06:18:11.997Z,9.6
2023-03-26T06:21:11.744Z,9.5
2023-03-26T06:24:11.742Z,9.5
2023-03-26T06:27:11.775Z,9.5
2023-03-26T06:30:11.859Z,9.5
2023-03-26T06:33:11.897Z,9.8
2023-03-26T06:36:12.169Z,9.9
2023-03-26T06:39:18.578Z,9.9
2023-03-26T06:42:11.762Z,10
2023-03-26T06:45:11.837Z,10
2023-03-26T06:48:12.059Z,9.9
2023-03-26T06:51:11.824Z,9.8
2023-03-26T06:54:11.756Z,9.9
2023-03-26T06:57:12.198Z,10.1
2023-03-26T07:00:12.455Z,10.4
2023-03-26T07:03:11.904Z,10.6
2023-03-26T07:06:11.785Z,10.9
2023-03-26T07:09:11.801Z,11.3
2023-03-26T07:12:11.712Z,11.8
2023-03-26T07:15:11.796Z,12.5
2023-03-26T07:18:11.883Z,13
2023-03-26T07:21:11.720Z,13.1
2023-03-26T07:24:11.729Z,13.3
2023-03-26T07:27:11.703Z,13.5
2023-03-26T07:30:11.964Z,13.9
2023-03-26T07:33:11.956Z,14.3
2023-03-26T07:36:11.880Z,14.3
2023-03-26T07:39:11.698Z,14.3
2023-03-26T07:42:11.810Z,14.3
2023-03-26T07:45:11.860Z,14.1
2023-03-26T07:48:11.883Z,14
2023-03-26T07:51:11.730Z,13.8
2023-03-26T07:54:11.939Z,13.3
2023-03-26T07:57:13.658Z,12.9
2023-03-26T08:00:11.832Z,12.5
2023-03-26T08:03:12.813Z,12.4
2023-03-26T08:06:11.765Z,12.5
2023-03-26T08:09:12.036Z,12.5
2023-03-26T08:12:11.927Z,12.5
2023-03-26T08:15:11.802Z,12.9
2023-03-26T08:18:12.128Z,13.3
2023-03-26T08:21:11.741Z,13.6
2023-03-26T08:24:11.717Z,14
2023-03-26T08:27:11.685Z,14.5
2023-03-26T08:30:12.017Z,15.3
2023-03-26T08:33:11.997Z,16.1
2023-03-26T08:36:11.944Z,17.8
2023-03-26T08:39:11.720Z,18.6
2023-03-26T08:42:11.717Z,18.1
2023-03-26T08:45:11.762Z,18.1
2023-03-26T08:48:11.937Z,17.8
2023-03-26T08:51:11.727Z,17.1
2023-03-26T08:54:11.714Z,16.5
2023-03-26T08:57:12.024Z,16
2023-03-26T09:00:14.038Z,15.9
2023-03-26T09:03:12.034Z,16.3
2023-03-26T09:06:11.715Z,16.6
2023-03-26T09:09:21.115Z,16.8
2023-03-26T09:12:11.807Z,16.4
2023-03-26T09:15:12.092Z,16.1
2023-03-26T09:18:12.315Z,15.9
2023-03-26T09:21:11.722Z,16.3
2023-03-26T09:24:11.789Z,16.6
2023-03-26T09:27:11.726Z,17
2023-03-26T09:30:11.760Z,17.9
2023-03-26T09:33:12.016Z,19.5
2023-03-26T09:36:12.098Z,23.1
2023-03-26T09:39:11.731Z,27.8
2023-03-26T09:42:11.852Z,28.7
2023-03-26T09:45:11.800Z,27.5
2023-03-26T09:48:11.872Z,25.5
2023-03-26T09:51:11.854Z,23.5
2023-03-26T09:54:11.790Z,21.8
2023-03-26T09:57:12.132Z,20.1
2023-03-26T10:00:11.943Z,18.9
2023-03-26T10:03:12.026Z,17.8
2023-03-26T10:06:11.749Z,16.9
2023-03-26T10:09:11.789Z,16.4
2023-03-26T10:12:11.795Z,16.1
2023-03-26T10:15:11.856Z,16.3
2023-03-26T10:18:36.837Z,16.5
2023-03-26T10:21:11.694Z,16.8
2023-03-26T10:24:11.738Z,17.4
2023-03-26T10:27:23.615Z,17.4
2023-03-26T10:30:11.855Z,16.8
2023-03-26T10:33:12.124Z,15.9
2023-03-26T10:36:11.965Z,15.1
2023-03-26T10:39:11.806Z,14.5
2023-03-26T10:42:11.947Z,14
2023-03-26T10:45:14.014Z,13.8
2023-03-26T10:48:12.019Z,13.9
2023-03-26T10:51:11.744Z,14.5
2023-03-26T10:54:11.741Z,15.8
2023-03-26T10:57:12.222Z,17.4
2023-03-26T11:00:11.847Z,18.6
2023-03-26T11:03:12.046Z,19.5
2023-03-26T11:06:11.967Z,19.9
2023-03-26T11:09:11.698Z,20.1
2023-03-26T11:12:35.294Z,20.6
2023-03-26T11:15:11.990Z,20.9
2023-03-26T11:18:12.078Z,21.1
2023-03-26T11:21:31.764Z,21.2
2023-03-26T11:24:17.342Z,21.2
2023-03-26T11:27:32.846Z,21.1
2023-03-26T11:30:11.855Z,20.9
2023-03-26T11:33:11.850Z,20.6
2023-03-26T11:36:12.191Z,20.8
2023-03-26T11:39:11.860Z,21
2023-03-26T11:42:11.786Z,21.4
2023-03-26T11:45:11.806Z,21.6
2023-03-26T11:48:12.081Z,21.9
2023-03-26T11:51:11.802Z,22.2
2023-03-26T11:54:11.806Z,22.6
2023-03-26T11:57:18.333Z,23.1
2023-03-26T12:00:12.035Z,23.6
2023-03-26T12:03:12.077Z,24.4
2023-03-26T12:06:11.740Z,25.1
2023-03-26T12:09:11.757Z,25.8
2023-03-26T12:12:11.773Z,26.5
2023-03-26T12:15:11.739Z,27.2
2023-03-26T12:18:12.029Z,28.7
2023-03-26T12:21:14.915Z,29.5
2023-03-26T12:24:11.865Z,29
2023-03-26T12:27:11.738Z,27.9
2023-03-26T12:30:11.817Z,26.5
2023-03-26T12:33:11.970Z,25.1
2023-03-26T12:36:12.314Z,23.6
2023-03-26T12:45:13.051Z,19.5
2023-03-26T12:48:16.015Z,18.6
2023-03-26T12:51:12.041Z,18
2023-03-26T12:54:11.922Z,17.2
2023-03-26T12:57:24.591Z,16.8
2023-03-26T13:00:12.284Z,16.3
2023-03-26T13:03:12.526Z,15.8
2023-03-26T13:06:11.766Z,15.3
2023-03-26T13:09:11.704Z,14.7
2023-03-26T13:12:11.752Z,14.4
2023-03-26T13:15:11.899Z,14.1
2023-03-26T13:18:12.176Z,14
2023-03-26T13:21:11.985Z,13.9
2023-03-26T13:24:11.757Z,13.9
2023-03-26T13:27:11.761Z,14
2023-03-26T13:30:11.900Z,14
2023-03-26T13:33:12.011Z,14
2023-03-26T13:36:35.156Z,14
2023-03-26T13:39:12.012Z,13.9
2023-03-26T13:42:11.807Z,13.9
2023-03-26T13:45:17.061Z,13.8
2023-03-26T13:48:12.034Z,13.6
2023-03-26T13:51:11.785Z,13.6
2023-03-26T13:54:11.754Z,13.6
2023-03-26T13:57:12.220Z,13.8
2023-03-26T14:00:12.296Z,13.8
2023-03-26T14:03:12.130Z,14
2023-03-26T14:06:11.707Z,14
2023-03-26T14:09:11.689Z,13.9
2023-03-26T14:12:25.777Z,13.5
2023-03-26T14:15:11.740Z,13.1
2023-03-26T14:18:12.042Z,12.9
2023-03-26T14:21:11.741Z,12.5
2023-03-26T14:24:11.753Z,12.2
2023-03-26T14:27:11.745Z,11.9
2023-03-26T14:30:15.259Z,11.8
2023-03-26T14:33:11.950Z,11.6
2023-03-26T14:36:12.145Z,11.6
2023-03-26T14:39:11.755Z,11.6
2023-03-26T14:42:11.757Z,11.6
2023-03-26T14:45:12.000Z,11.5
2023-03-26T14:48:14.689Z,11.3
2023-03-26T14:51:12.278Z,11
2023-03-26T14:54:11.687Z,10.8
2023-03-26T14:57:12.321Z,10.5
2023-03-26T15:00:11.875Z,10.3
2023-03-26T15:03:12.168Z,10.1
2023-03-26T15:06:11.740Z,10
2023-03-26T15:09:11.860Z,10
2023-03-26T15:12:24.533Z,10
2023-03-26T15:15:12.093Z,10
2023-03-26T15:18:11.806Z,10
2023-03-26T15:21:11.777Z,10
2023-03-26T15:24:11.739Z,10
2023-03-26T15:27:11.706Z,10
2023-03-26T15:30:11.851Z,9.8
2023-03-26T15:33:12.133Z,9.6
2023-03-26T15:36:12.082Z,9.4
2023-03-26T15:39:11.925Z,9.1
2023-03-26T15:42:12.352Z,8.9
2023-03-26T15:45:11.702Z,8.8
2023-03-26T15:48:15.580Z,8.6
2023-03-26T15:51:11.692Z,8.5
2023-03-26T15:54:11.733Z,8.4
2023-03-26T15:57:12.164Z,8.4
2023-03-26T16:00:11.817Z,8.4
2023-03-26T16:03:11.884Z,8.4
2023-03-26T16:06:11.749Z,8.4
2023-03-26T16:09:11.715Z,8.4
2023-03-26T16:12:11.669Z,8.4
2023-03-26T16:15:11.762Z,8.4
2023-03-26T16:18:11.932Z,8.4
2023-03-26T16:21:33.279Z,8.3
2023-03-26T16:24:11.783Z,8.3
2023-03-26T16:27:11.795Z,8.3
2023-03-26T16:30:11.871Z,8.3
2023-03-26T16:33:12.054Z,8.3
2023-03-26T16:36:12.445Z,8.3
2023-03-26T16:39:11.752Z,8.1
2023-03-26T16:42:17.790Z,8.1
2023-03-26T16:45:12.720Z,8
2023-03-26T16:48:12.541Z,8
2023-03-26T16:51:11.719Z,8
2023-03-26T16:54:11.937Z,8
2023-03-26T16:57:12.016Z,8
2023-03-26T17:00:18.586Z,7.9
2023-03-26T17:03:12.515Z,7.7
2023-03-26T17:06:11.772Z,7.9
2023-03-26T17:09:14.979Z,7.7
2023-03-26T17:12:11.785Z,7.7
2023-03-26T17:15:11.989Z,7.7
2023-03-26T17:18:12.343Z,7.7
2023-03-26T17:21:11.669Z,7.7
2023-03-26T17:24:19.939Z,7.7
2023-03-26T17:27:12.535Z,7.6
2023-03-26T17:30:12.065Z,7.6
2023-03-26T17:33:12.002Z,7.6
2023-03-26T17:36:12.118Z,7.6
2023-03-26T17:39:12.009Z,7.5
2023-03-26T17:42:15.287Z,7.5
2023-03-26T17:45:11.773Z,7.4
2023-03-26T17:48:11.867Z,7.2
2023-03-26T17:51:11.633Z,7.2
2023-03-26T17:54:11.718Z,7.2
2023-03-26T17:57:12.213Z,7.1
2023-03-26T18:00:11.758Z,7.1
2023-03-26T18:03:12.433Z,7
2023-03-26T18:06:11.647Z,7
2023-03-26T18:09:17.491Z,7
2023-03-26T18:12:11.684Z,6.9
2023-03-26T18:15:11.801Z,6.9
2023-03-26T18:18:11.809Z,6.9
2023-03-26T18:21:14.582Z,6.9
2023-03-26T18:24:11.817Z,6.9
2023-03-26T18:27:14.677Z,6.7
2023-03-26T18:30:14.003Z,6.7
2023-03-26T18:33:12.418Z,6.6
2023-03-26T18:36:11.855Z,6.5
2023-03-26T18:39:11.663Z,6.5
2023-03-26T18:42:25.026Z,6.4
2023-03-26T18:45:16.184Z,6.4
2023-03-26T18:48:11.903Z,6.4
2023-03-26T18:51:16.020Z,6.2
2023-03-26T18:54:11.720Z,6.4
2023-03-26T18:57:24.573Z,6.2
2023-03-26T19:00:11.732Z,6.2
2023-03-26T19:03:12.637Z,6.2
2023-03-26T19:06:11.671Z,6.2
2023-03-26T19:09:34.671Z,6.2
2023-03-26T19:12:11.722Z,6.2
2023-03-26T19:15:11.834Z,6.2
2023-03-26T19:18:12.264Z,6.2
2023-03-26T19:21:11.811Z,6.2
2023-03-26T19:24:11.744Z,6.2
2023-03-26T19:27:12.161Z,6.1
2023-03-26T19:30:12.034Z,6.1
2023-03-26T19:33:25.368Z,6.1
2023-03-26T19:36:11.911Z,6.1
2023-03-26T19:39:11.853Z,6
2023-03-26T19:42:11.752Z,6
2023-03-26T19:45:11.775Z,6.1
2023-03-26T19:48:52.110Z,6
2023-03-26T19:51:11.663Z,6
2023-03-26T19:54:11.758Z,6
2023-03-26T19:57:12.146Z,6
2023-03-26T20:00:11.800Z,6
2023-03-26T20:03:12.652Z,6
2023-03-26T20:06:11.673Z,6
2023-03-26T20:09:11.700Z,6
2023-03-26T20:12:11.735Z,6
2023-03-26T20:15:23.589Z,6
2023-03-26T20:18:12.225Z,6
2023-03-26T20:21:11.728Z,6
2023-03-26T20:24:11.684Z,5.9
2023-03-26T20:27:11.782Z,5.9
2023-03-26T20:30:36.754Z,5.9
2023-03-26T20:33:24.951Z,5.7
2023-03-26T20:36:12.221Z,5.7
2023-03-26T20:39:11.738Z,5.7
2023-03-26T20:42:11.994Z,5.7
2023-03-26T20:45:11.898Z,5.7
2023-03-26T20:48:12.134Z,5.6
2023-03-26T20:51:12.453Z,5.6
2023-03-26T20:54:11.874Z,5.5
2023-03-26T20:57:11.932Z,5.5
2023-03-26T21:00:11.793Z,5.5
2023-03-26T21:03:12.023Z,5.4
2023-03-26T21:06:11.713Z,5.2
2023-03-26T21:09:11.711Z,5.1
2023-03-26T21:12:11.783Z,5
2023-03-26T21:15:31.762Z,5
2023-03-26T21:18:12.023Z,4.9
2023-03-26T21:21:31.101Z,4.7
2023-03-26T21:24:11.690Z,4.7
2023-03-26T21:27:11.724Z,4.7
2023-03-26T21:30:11.702Z,4.7
2023-03-26T21:33:12.361Z,4.6
2023-03-26T21:36:12.492Z,4.6
2023-03-26T21:39:11.739Z,4.6
2023-03-26T21:42:16.992Z,4.6
2023-03-26T21:45:11.696Z,4.5
2023-03-26T21:48:12.141Z,4.4
2023-03-26T21:51:11.654Z,4.4
2023-03-26T21:54:11.707Z,4.4
2023-03-26T21:57:12.030Z,4.4
2023-03-26T22:00:12.218Z,4.2
2023-03-26T22:03:12.377Z,4.2
2023-03-26T22:06:11.744Z,4.2
2023-03-26T22:09:11.671Z,4.2
2023-03-26T22:12:11.704Z,4.2
2023-03-26T22:15:11.643Z,4.2
2023-03-26T22:18:12.084Z,4.2
2023-03-26T22:21:11.751Z,4.2
2023-03-26T22:24:11.666Z,4.2
2023-03-26T22:27:11.695Z,4.2
2023-03-26T22:30:11.827Z,4.2
2023-03-26T22:33:12.100Z,4.2
2023-03-26T22:36:29.172Z,4.2
2023-03-26T22:39:11.698Z,4.2
2023-03-26T22:42:11.850Z,4.2
2023-03-26T22:45:11.875Z,4.2
2023-03-26T22:48:15.801Z,4.1
2023-03-26T22:51:11.714Z,4.1
2023-03-26T22:54:11.730Z,4.1
2023-03-26T22:57:12.070Z,4
2023-03-26T23:00:11.914Z,3.9
2023-03-26T23:03:12.418Z,3.9
2023-03-26T23:06:11.753Z,3.9
2023-03-26T23:09:11.672Z,3.9
2023-03-26T23:12:11.734Z,3.9
2023-03-26T23:15:11.914Z,4
2023-03-26T23:18:12.023Z,4
2023-03-26T23:21:18.544Z,4
2023-03-26T23:24:11.733Z,4.1
2023-03-26T23:27:11.734Z,4.1
2023-03-26T23:30:12.236Z,4.1
2023-03-26T23:33:11.799Z,4
2023-03-26T23:36:16.317Z,4
2023-03-26T23:39:11.744Z,4
2023-03-26T23:42:11.664Z,3.9
2023-03-26T23:45:11.688Z,3.9
2023-03-26T23:48:11.865Z,3.9
2023-03-26T23:51:15.375Z,3.7
2023-03-26T23:54:11.694Z,3.7
2023-03-26T23:57:12.244Z,3.7
